Time;durP1;ratioP1;P1;durP2;ratioP2;P2;SDS_P1;SDS_P2;PMS_P1;PMS_P2;Temp;Humidity;BMP_temperature;BMP_pressure;BME280_temperature;BME280_humidity;BME280_pressure;Samples;Min_cycle;Max_cycle;Signal;HPM_P1;HPM_P2
2023/12/19 00:02:26;;;;;;;6.45;4.00;;;2.20;99.90;;;;;;7600990;19;20833;-74
2023/12/19 00:04:58;;;;;;;8.70;4.35;;;2.10;99.90;;;;;;7600361;19;20064;-73
2023/12/19 00:07:32;;;;;;;9.70;5.17;;;2.10;99.90;;;;;;7603331;19;20418;-74
2023/12/19 00:10:05;;;;;;;8.82;4.75;;;2.00;99.90;;;;;;7592687;19;20022;-74
2023/12/19 00:12:37;;;;;;;7.60;4.55;;;1.80;99.90;;;;;;7594364;19;20602;-73
2023/12/19 00:15:10;;;;;;;7.38;4.57;;;1.70;99.90;;;;;;7596888;19;20014;-74
2023/12/19 00:17:43;;;;;;;5.32;3.45;;;1.60;99.90;;;;;;7594727;19;20019;-74
2023/12/19 00:20:15;;;;;;;6.70;4.10;;;1.70;99.90;;;;;;7599512;19;20022;-74
2023/12/19 00:22:48;;;;;;;6.63;3.33;;;1.90;99.90;;;;;;7595479;19;20590;-72
2023/12/19 00:25:22;;;;;;;5.03;3.20;;;2.10;99.90;;;;;;7596483;19;20014;-76
2023/12/19 00:27:55;;;;;;;7.47;3.10;;;2.00;99.90;;;;;;7590278;19;20022;-75
2023/12/19 00:30:27;;;;;;;6.00;3.28;;;1.90;99.90;;;;;;7598975;19;20034;-76
2023/12/19 00:33:00;;;;;;;5.53;2.80;;;1.90;99.90;;;;;;7598544;19;21043;-77
2023/12/19 00:35:33;;;;;;;3.80;2.47;;;2.00;99.90;;;;;;7599218;19;20369;-74
2023/12/19 00:38:05;;;;;;;4.40;2.72;;;2.10;99.90;;;;;;7611840;19;20064;-75
2023/12/19 00:40:41;;;;;;;3.28;2.38;;;2.00;99.90;;;;;;7613781;19;20026;-75
2023/12/19 00:43:13;;;;;;;3.50;2.30;;;2.10;99.90;;;;;;7610270;19;20363;-74
2023/12/19 00:45:46;;;;;;;3.92;2.58;;;2.20;99.90;;;;;;7613933;19;20094;-75
2023/12/19 00:48:18;;;;;;;3.80;2.35;;;2.10;99.90;;;;;;7614878;19;20022;-76
2023/12/19 00:50:51;;;;;;;5.73;2.60;;;2.20;99.90;;;;;;7608370;19;21355;-76
2023/12/19 00:53:24;;;;;;;8.18;3.78;;;2.20;99.90;;;;;;7609661;19;20054;-74
2023/12/19 00:55:56;;;;;;;8.80;4.15;;;2.10;99.90;;;;;;7610482;19;20025;-74
2023/12/19 00:58:28;;;;;;;8.53;4.30;;;1.90;99.90;;;;;;7619003;19;20019;-74
2023/12/19 01:01:01;;;;;;;9.05;4.28;;;1.80;99.90;;;;;;7613021;19;20035;-75
2023/12/19 01:03:34;;;;;;;6.90;3.83;;;1.70;99.90;;;;;;7614525;19;20030;-75
2023/12/19 01:06:07;;;;;;;7.07;3.92;;;1.60;99.90;;;;;;7610257;19;22367;-75
2023/12/19 01:08:40;;;;;;;7.70;3.47;;;1.50;99.90;;;;;;7615321;19;20023;-75
2023/12/19 01:11:12;;;;;;;6.90;3.77;;;1.50;99.90;;;;;;7614374;19;20018;-75
2023/12/19 01:13:45;;;;;;;9.80;3.83;;;1.40;99.90;;;;;;7618467;19;20756;-75
2023/12/19 01:16:17;;;;;;;11.43;4.57;;;1.30;99.90;;;;;;7614870;19;20085;-76
2023/12/19 01:18:50;;;;;;;17.48;6.05;;;1.30;99.90;;;;;;7608173;19;20022;-74
2023/12/19 01:21:22;;;;;;;16.30;5.77;;;1.30;99.90;;;;;;7615685;19;20056;-76
2023/12/19 01:23:54;;;;;;;11.57;5.50;;;1.30;99.90;;;;;;7617175;19;20017;-75
2023/12/19 01:26:27;;;;;;;11.50;4.85;;;1.30;99.90;;;;;;7615389;19;20010;-75
2023/12/19 01:29:02;;;;;;;13.57;5.28;;;1.30;99.90;;;;;;7620751;19;20054;-76
2023/12/19 01:31:36;;;;;;;12.50;4.50;;;1.20;99.90;;;;;;7611909;19;20025;-75
2023/12/19 01:34:09;;;;;;;13.30;5.43;;;1.20;99.90;;;;;;7615040;19;20021;-75
2023/12/19 01:36:41;;;;;;;11.02;4.50;;;1.20;99.90;;;;;;7618505;19;20022;-74
2023/12/19 01:39:27;;;;;;;13.98;4.95;;;1.10;99.90;;;;;;7616508;19;20635;-75
2023/12/19 01:41:59;;;;;;;13.90;4.43;;;1.10;99.90;;;;;;7619142;19;20484;-75
2023/12/19 01:44:31;;;;;;;11.10;4.35;;;0.90;99.90;;;;;;7611540;19;20554;-75
2023/12/19 01:47:08;;;;;;;9.98;4.28;;;0.90;99.90;;;;;;7614273;19;20021;-75
2023/12/19 01:49:40;;;;;;;9.98;4.47;;;0.90;99.90;;;;;;7617812;19;20045;-75
2023/12/19 01:52:12;;;;;;;9.27;4.28;;;0.90;99.90;;;;;;7624153;19;20928;-74
2023/12/19 01:54:44;;;;;;;9.90;4.72;;;0.90;99.90;;;;;;7619116;19;20020;-75
2023/12/19 01:57:17;;;;;;;10.25;4.57;;;0.90;99.90;;;;;;7624578;19;20054;-74
2023/12/19 01:59:50;;;;;;;11.18;4.40;;;0.80;99.90;;;;;;7627510;19;20014;-75
2023/12/19 02:02:22;;;;;;;8.57;4.68;;;0.80;99.90;;;;;;7627271;19;20024;-75
2023/12/19 02:04:57;;;;;;;11.80;4.87;;;0.70;99.90;;;;;;7618002;19;20389;-75
2023/12/19 02:07:30;;;;;;;7.80;4.15;;;0.80;99.90;;;;;;7628028;19;20837;-75
2023/12/19 02:10:03;;;;;;;8.77;4.15;;;0.80;99.90;;;;;;7624727;19;20014;-76
2023/12/19 02:12:37;;;;;;;8.25;4.03;;;0.80;99.90;;;;;;7629256;19;20018;-73
2023/12/19 02:15:09;;;;;;;11.18;4.93;;;0.80;99.90;;;;;;7622346;19;20030;-74
2023/12/19 02:17:42;;;;;;;10.63;4.67;;;0.70;99.90;;;;;;7628908;19;20010;-76
2023/12/19 02:20:15;;;;;;;7.03;3.67;;;0.70;99.90;;;;;;7629303;19;20279;-74
2023/12/19 02:22:52;;;;;;;6.63;3.28;;;0.60;99.90;;;;;;7620374;19;20026;-75
2023/12/19 02:25:24;;;;;;;5.50;2.85;;;0.60;99.90;;;;;;7624285;19;20018;-75
2023/12/19 02:27:59;;;;;;;5.32;2.63;;;0.60;99.90;;;;;;7622471;19;20015;-75
2023/12/19 02:30:34;;;;;;;4.65;2.85;;;0.50;99.90;;;;;;7621000;19;20010;-75
2023/12/19 02:33:07;;;;;;;6.55;3.17;;;0.50;99.90;;;;;;7616241;19;20018;-74
2023/12/19 02:35:43;;;;;;;4.75;2.97;;;0.50;99.90;;;;;;7619282;19;20010;-74
2023/12/19 02:38:16;;;;;;;5.47;2.97;;;0.60;99.90;;;;;;7618013;19;20018;-74
2023/12/19 02:40:48;;;;;;;6.03;3.00;;;0.60;99.90;;;;;;7614525;19;20693;-74
2023/12/19 02:43:20;;;;;;;6.50;3.20;;;0.60;99.90;;;;;;7616480;19;20619;-74
2023/12/19 02:45:53;;;;;;;4.30;2.47;;;0.50;99.90;;;;;;7617259;19;20022;-74
2023/12/19 02:48:25;;;;;;;4.20;2.90;;;0.50;99.90;;;;;;7620307;19;20374;-74
2023/12/19 02:50:58;;;;;;;4.97;2.55;;;0.50;99.90;;;;;;7614582;19;20056;-74
2023/12/19 02:53:30;;;;;;;4.95;2.55;;;0.50;99.90;;;;;;7615315;19;20022;-74
2023/12/19 02:56:03;;;;;;;4.03;3.17;;;0.50;99.90;;;;;;7615107;19;21280;-74
2023/12/19 02:58:35;;;;;;;4.00;2.80;;;0.50;99.90;;;;;;7618630;19;20014;-74
2023/12/19 03:01:07;;;;;;;4.28;2.72;;;0.50;99.90;;;;;;7613895;19;20018;-74
2023/12/19 03:03:42;;;;;;;3.30;2.05;;;0.50;99.90;;;;;;7616407;19;20022;-74
2023/12/19 03:06:15;;;;;;;4.20;2.55;;;0.50;99.90;;;;;;7613761;19;20022;-74
2023/12/19 03:08:48;;;;;;;5.43;2.90;;;0.50;99.90;;;;;;7615175;19;20369;-75
2023/12/19 03:11:20;;;;;;;3.72;2.70;;;0.50;99.90;;;;;;7626649;19;20026;-75
2023/12/19 03:13:52;;;;;;;5.25;2.65;;;0.50;99.90;;;;;;7617546;19;20390;-74
2023/12/19 03:16:24;;;;;;;2.85;2.10;;;0.60;99.90;;;;;;7625282;19;20142;-75
2023/12/19 03:18:56;;;;;;;4.72;2.20;;;0.50;99.90;;;;;;7623802;19;20025;-74
2023/12/19 03:21:29;;;;;;;5.93;2.42;;;0.50;99.90;;;;;;7609372;19;20015;-75
2023/12/19 03:24:02;;;;;;;3.22;2.15;;;0.50;99.90;;;;;;7611185;19;20013;-75
2023/12/19 03:26:35;;;;;;;4.10;2.35;;;0.50;99.90;;;;;;7624674;19;20018;-75
2023/12/19 03:29:07;;;;;;;3.67;2.20;;;0.40;99.90;;;;;;7619971;19;20022;-74
2023/12/19 03:31:40;;;;;;;7.32;2.05;;;0.30;99.90;;;;;;7622480;19;20054;-75
2023/12/19 03:34:17;;;;;;;3.63;2.53;;;0.30;99.90;;;;;;7617215;19;20018;-74
2023/12/19 03:36:49;;;;;;;5.65;2.67;;;0.30;99.90;;;;;;7619517;19;20094;-75
2023/12/19 03:39:22;;;;;;;3.72;2.20;;;0.30;99.90;;;;;;7614985;19;20014;-74
2023/12/19 03:41:54;;;;;;;2.70;2.00;;;0.30;99.90;;;;;;7608771;19;20536;-74
2023/12/19 03:44:44;;;;;;;4.13;2.40;;;0.30;99.90;;;;;;7616819;19;20110;-73
2023/12/19 03:47:16;;;;;;;3.63;1.88;;;0.30;99.90;;;;;;7609045;19;20015;-75
2023/12/19 03:49:50;;;;;;;3.83;2.30;;;0.30;99.90;;;;;;7617923;19;20039;-75
2023/12/19 03:52:23;;;;;;;2.95;2.15;;;0.20;99.90;;;;;;7617031;19;20833;-75
2023/12/19 03:54:55;;;;;;;;;;;0.20;99.90;;;;;;7616429;19;20094;-75
2023/12/19 03:57:28;;;;;;;3.33;1.83;;;0.20;99.90;;;;;;7619068;19;19993;-75
2023/12/19 04:00:00;;;;;;;3.25;2.35;;;0.30;99.90;;;;;;7610876;19;20026;-75
2023/12/19 04:02:39;;;;;;;3.53;2.40;;;0.40;99.90;;;;;;7615292;19;20021;-75
2023/12/19 04:05:12;;;;;;;4.80;2.43;;;0.50;99.90;;;;;;7617372;19;20014;-75
2023/12/19 04:07:44;;;;;;;3.83;2.35;;;0.50;99.90;;;;;;7620838;19;20289;-74
2023/12/19 04:10:17;;;;;;;5.53;2.38;;;0.40;99.90;;;;;;7616466;19;20225;-74
2023/12/19 04:12:49;;;;;;;3.08;2.08;;;0.40;99.90;;;;;;7620003;19;20022;-74
2023/12/19 04:15:22;;;;;;;3.97;2.10;;;0.30;99.90;;;;;;7614422;19;20019;-75
2023/12/19 04:17:54;;;;;;;3.70;2.10;;;0.30;99.90;;;;;;7611535;19;20020;-75
2023/12/19 04:20:26;;;;;;;4.10;2.33;;;0.10;99.90;;;;;;7610218;19;20048;-75
2023/12/19 04:22:58;;;;;;;5.47;2.38;;;0.20;99.90;;;;;;7614071;19;20018;-76
2023/12/19 04:25:30;;;;;;;3.60;2.20;;;0.00;99.90;;;;;;7612912;19;20022;-74
2023/12/19 04:28:03;;;;;;;4.07;2.42;;;0.00;99.90;;;;;;7611220;19;20010;-74
2023/12/19 04:30:35;;;;;;;3.38;2.30;;;0.10;99.90;;;;;;7608780;19;20011;-75
2023/12/19 04:33:08;;;;;;;4.05;2.30;;;0.10;99.90;;;;;;7616366;19;20384;-74
2023/12/19 04:35:41;;;;;;;4.50;2.20;;;0.20;99.90;;;;;;7616780;19;20593;-74
2023/12/19 04:38:14;;;;;;;3.50;2.55;;;0.30;99.90;;;;;;7614252;19;20014;-74
2023/12/19 04:40:46;;;;;;;6.05;3.00;;;0.40;99.90;;;;;;7615551;19;20055;-75
2023/12/19 04:43:19;;;;;;;6.10;3.53;;;0.30;99.90;;;;;;7616819;19;20047;-74
2023/12/19 04:45:51;;;;;;;6.22;4.05;;;0.30;99.90;;;;;;7613463;19;20091;-75
2023/12/19 04:48:24;;;;;;;8.23;3.60;;;0.20;99.90;;;;;;7611962;19;20018;-75
2023/12/19 04:50:56;;;;;;;6.63;3.90;;;0.10;99.90;;;;;;7614315;19;20026;-75
2023/12/19 04:53:30;;;;;;;8.38;4.75;;;0.00;99.90;;;;;;7614989;19;20852;-74
2023/12/19 04:56:03;;;;;;;10.13;4.32;;;0.00;99.90;;;;;;7608794;19;20014;-75
2023/12/19 04:58:35;;;;;;;7.45;4.63;;;0.00;99.90;;;;;;7609917;19;20014;-75
2023/12/19 05:01:08;;;;;;;4.35;3.40;;;0.00;99.90;;;;;;7618795;19;20563;-74
2023/12/19 05:03:41;;;;;;;7.47;3.13;;;0.00;99.90;;;;;;7619884;19;20015;-75
2023/12/19 05:06:17;;;;;;;5.82;3.50;;;0.10;99.90;;;;;;7609364;19;21021;-74
2023/12/19 05:08:50;;;;;;;5.78;2.75;;;0.20;99.90;;;;;;7620350;19;20022;-74
2023/12/19 05:11:23;;;;;;;4.28;2.03;;;0.30;99.90;;;;;;7607974;19;20023;-74
2023/12/19 05:13:56;;;;;;;3.17;2.15;;;0.40;99.90;;;;;;7611641;19;20065;-75
2023/12/19 05:16:28;;;;;;;2.75;2.17;;;0.30;99.90;;;;;;7624310;19;20014;-74
2023/12/19 05:19:00;;;;;;;5.85;3.45;;;0.80;99.90;;;;;;7628391;19;20082;-74
2023/12/19 05:21:39;;;;;;;3.53;2.47;;;0.20;99.90;;;;;;7625562;19;20018;-75
2023/12/19 05:24:12;;;;;;;4.68;2.85;;;0.20;99.90;;;;;;7612620;19;21613;-75
2023/12/19 05:26:45;;;;;;;4.20;2.50;;;0.10;99.90;;;;;;7609489;19;20936;-75
2023/12/19 05:29:17;;;;;;;5.80;2.30;;;0.20;99.90;;;;;;7605165;19;20515;-75
2023/12/19 05:31:49;;;;;;;4.53;2.67;;;0.30;99.90;;;;;;7608530;19;20850;-75
2023/12/19 05:34:22;;;;;;;3.45;1.92;;;0.40;99.90;;;;;;7612924;19;20022;-75
2023/12/19 05:36:54;;;;;;;3.37;2.07;;;0.50;99.90;;;;;;7614858;19;20101;-75
2023/12/19 05:39:27;;;;;;;2.37;1.87;;;0.50;99.90;;;;;;7613797;19;20052;-74
2023/12/19 05:41:59;;;;;;;2.08;1.70;;;0.60;99.90;;;;;;7601190;19;20023;-74
2023/12/19 05:44:31;;;;;;;2.25;1.60;;;0.70;99.90;;;;;;7605170;19;21046;-74
2023/12/19 05:47:04;;;;;;;2.50;1.70;;;0.80;99.90;;;;;;7618170;19;20014;-76
2023/12/19 05:49:36;;;;;;;3.55;2.03;;;0.80;99.90;;;;;;7632914;19;20030;-74
2023/12/19 05:52:08;;;;;;;3.75;2.13;;;0.80;99.90;;;;;;7628367;19;20031;-76
2023/12/19 05:54:41;;;;;;;10.50;2.03;;;1.00;99.90;;;;;;7628387;19;20018;-76
2023/12/19 05:57:13;;;;;;;4.53;1.88;;;0.90;99.90;;;;;;7618988;19;20139;-75
2023/12/19 05:59:46;;;;;;;2.30;1.42;;;0.90;99.90;;;;;;7627513;19;20778;-75
2023/12/19 06:02:20;;;;;;;3.40;1.50;;;0.90;99.90;;;;;;7623915;19;20565;-76
2023/12/19 06:04:53;;;;;;;6.93;1.65;;;0.90;99.90;;;;;;7617026;19;20022;-74
2023/12/19 06:07:26;;;;;;;5.32;2.05;;;0.90;99.90;;;;;;7618653;19;20082;-75
2023/12/19 06:09:58;;;;;;;3.95;2.00;;;1.00;99.90;;;;;;7622246;19;20015;-75
2023/12/19 06:12:31;;;;;;;3.78;2.22;;;1.00;99.90;;;;;;7614962;19;20021;-75
2023/12/19 06:15:08;;;;;;;8.70;2.80;;;1.00;99.90;;;;;;7612058;19;20018;-74
2023/12/19 06:17:42;;;;;;;8.60;2.72;;;1.00;99.90;;;;;;7620454;19;20014;-75
2023/12/19 06:20:15;;;;;;;5.78;2.40;;;1.10;99.90;;;;;;7618352;19;20396;-73
2023/12/19 06:22:47;;;;;;;5.13;2.47;;;1.10;99.90;;;;;;7621196;19;20019;-75
2023/12/19 06:25:20;;;;;;;5.43;2.08;;;1.10;99.90;;;;;;7618114;19;20011;-75
2023/12/19 06:27:52;;;;;;;3.57;1.87;;;1.10;99.90;;;;;;7618991;19;20014;-75
2023/12/19 06:30:25;;;;;;;3.90;1.80;;;1.10;99.90;;;;;;7614719;19;20018;-75
2023/12/19 06:33:04;;;;;;;6.25;1.92;;;1.20;99.90;;;;;;7621878;19;20546;-75
2023/12/19 06:35:42;;;;;;;4.32;2.38;;;1.20;99.90;;;;;;7617445;19;20476;-75
2023/12/19 06:38:15;;;;;;;6.22;3.00;;;1.10;99.90;;;;;;7583902;19;20014;-74
2023/12/19 06:40:47;;;;;;;5.55;3.05;;;1.00;99.90;;;;;;7565528;19;20023;-74
2023/12/19 06:43:19;;;;;;;3.90;2.45;;;0.90;99.90;;;;;;7581582;19;20006;-75
2023/12/19 06:45:52;;;;;;;5.47;2.35;;;0.90;99.90;;;;;;7591772;19;20082;-74
2023/12/19 06:48:25;;;;;;;6.53;3.28;;;0.80;99.90;;;;;;7587556;19;20022;-74
2023/12/19 06:50:58;;;;;;;7.20;2.73;;;0.80;99.90;;;;;;7600000;19;20061;-74
2023/12/19 06:53:33;;;;;;;7.28;3.28;;;0.90;99.90;;;;;;7592344;19;20029;-74
2023/12/19 06:56:06;;;;;;;5.07;2.95;;;0.90;99.90;;;;;;7579717;19;20052;-73
2023/12/19 06:58:39;;;;;;;9.60;3.33;;;0.90;99.90;;;;;;7575180;19;20435;-73
2023/12/19 07:01:11;;;;;;;5.65;2.60;;;0.90;99.90;;;;;;7578490;19;20021;-72
2023/12/19 07:03:43;;;;;;;6.65;2.75;;;0.90;99.90;;;;;;7589170;19;20030;-73
2023/12/19 07:06:17;;;;;;;5.57;3.40;;;1.00;99.90;;;;;;7578444;19;20533;-75
2023/12/19 07:08:50;;;;;;;4.70;2.83;;;1.00;99.90;;;;;;7565984;19;20029;-74
2023/12/19 07:11:25;;;;;;;7.55;2.67;;;0.90;99.90;;;;;;7581707;19;20279;-74
2023/12/19 07:13:58;;;;;;;7.82;2.78;;;0.90;99.90;;;;;;7564364;19;20023;-75
2023/12/19 07:16:31;;;;;;;6.72;2.60;;;0.90;99.90;;;;;;7585692;19;20033;-75
2023/12/19 07:19:04;;;;;;;8.30;2.28;;;1.00;99.90;;;;;;7561592;19;20024;-75
2023/12/19 07:21:36;;;;;;;2.87;1.80;;;1.10;99.90;;;;;;7589383;19;20674;-75
2023/12/19 07:24:09;;;;;;;7.47;2.28;;;1.10;99.90;;;;;;7583393;19;20029;-74
2023/12/19 07:26:42;;;;;;;5.38;2.90;;;1.20;99.90;;;;;;7579822;19;20752;-75
2023/12/19 07:29:15;;;;;;;7.13;2.70;;;1.30;99.90;;;;;;7548617;19;20021;-74
2023/12/19 07:31:47;;;;;;;8.82;2.38;;;1.20;99.90;;;;;;7560978;19;20023;-75
2023/12/19 07:34:21;;;;;;;7.55;2.30;;;1.30;99.90;;;;;;7535545;19;20022;-76
